createdAt,value
2018-02-27T00:00:05.558Z,0
2018-02-27T00:01:05.822Z,0
2018-02-27T00:02:05.574Z,0
2018-02-27T00:03:05.326Z,0
2018-02-27T00:04:05.832Z,0
2018-02-27T00:05:05.334Z,0
2018-02-27T00:06:05.648Z,0
2018-02-27T00:07:05.110Z,0
2018-02-27T00:08:05.611Z,0
2018-02-27T00:09:05.372Z,0
2018-02-27T00:10:05.636Z,0
2018-02-27T00:11:05.881Z,0
2018-02-27T00:12:05.386Z,0
2018-02-27T00:13:05.396Z,0
2018-02-27T00:14:05.668Z,0
2018-02-27T00:15:05.665Z,0
2018-02-27T00:16:05.420Z,0
2018-02-27T00:17:05.432Z,0
2018-02-27T00:18:05.688Z,0
2018-02-27T00:19:05.712Z,0
2018-02-27T00:20:05.715Z,0
2018-02-27T00:21:05.252Z,0
2018-02-27T00:22:05.981Z,0
2018-02-27T00:23:05.474Z,0
2018-02-27T00:24:05.491Z,0
2018-02-27T00:25:04.978Z,0
2018-02-27T00:26:05.805Z,0
2018-02-27T00:27:05.498Z,0
2018-02-27T00:28:06.026Z,0
2018-02-27T00:29:05.796Z,0
2018-02-27T00:30:05.032Z,0
2018-02-27T00:31:05.333Z,0
2018-02-27T00:32:05.792Z,0
2018-02-27T00:33:06.055Z,0
2018-02-27T00:34:05.560Z,0
2018-02-27T00:35:06.071Z,0
2018-02-27T00:36:06.078Z,0
2018-02-27T00:37:05.837Z,0
2018-02-27T00:38:05.836Z,0
2018-02-27T00:39:05.348Z,0
2018-02-27T00:40:05.852Z,0
2018-02-27T00:41:05.655Z,0
2018-02-27T00:42:06.118Z,0
2018-02-27T00:43:05.622Z,0
2018-02-27T00:44:06.136Z,0
2018-02-27T00:45:05.384Z,0
2018-02-27T00:46:05.644Z,0
2018-02-27T00:47:05.917Z,0
2018-02-27T00:48:05.917Z,0
2018-02-27T00:49:05.666Z,0
2018-02-27T00:50:05.673Z,0
2018-02-27T00:51:05.678Z,0
2018-02-27T00:52:05.692Z,0
2018-02-27T00:53:05.951Z,0
2018-02-27T00:54:05.974Z,0
2018-02-27T00:55:06.215Z,0
2018-02-27T00:56:06.273Z,0
2018-02-27T00:57:05.980Z,0
2018-02-27T00:58:05.988Z,0
2018-02-27T00:59:05.732Z,0
2018-02-27T01:00:05.488Z,0
2018-02-27T01:01:05.998Z,0
2018-02-27T01:02:06.014Z,0
2018-02-27T01:03:06.024Z,0
2018-02-27T01:04:06.302Z,0
2018-02-27T01:05:05.522Z,0
2018-02-27T01:06:06.296Z,0
2018-02-27T01:07:06.052Z,0
2018-02-27T01:08:06.054Z,0
2018-02-27T01:09:06.070Z,0
2018-02-27T01:10:05.828Z,0
2018-02-27T01:11:06.411Z,0
2018-02-27T01:12:06.340Z,0
2018-02-27T01:13:05.585Z,0
2018-02-27T01:14:06.102Z,0
2018-02-27T01:15:06.364Z,0
2018-02-27T01:16:06.155Z,0
2018-02-27T01:17:06.121Z,0
2018-02-27T01:18:06.374Z,0
2018-02-27T01:19:06.132Z,0
2018-02-27T01:20:05.653Z,0
2018-02-27T01:21:06.154Z,0
2018-02-27T01:22:06.406Z,0
2018-02-27T01:23:06.161Z,0
2018-02-27T01:24:05.909Z,0
2018-02-27T01:25:06.430Z,0
2018-02-27T01:26:06.500Z,0
2018-02-27T01:27:06.188Z,0
2018-02-27T01:28:06.452Z,0
2018-02-27T01:29:06.255Z,0
2018-02-27T01:30:05.949Z,0
2018-02-27T01:31:05.961Z,0
2018-02-27T01:32:05.965Z,0
2018-02-27T01:33:06.227Z,0
2018-02-27T01:34:06.235Z,0
2018-02-27T01:35:05.738Z,0
2018-02-27T01:36:06.044Z,0
2018-02-27T01:37:05.508Z,0
2018-02-27T01:38:06.010Z,0
2018-02-27T01:39:06.268Z,0
2018-02-27T01:40:06.284Z,0
2018-02-27T01:41:05.775Z,0
2018-02-27T01:42:06.542Z,0
2018-02-27T01:43:06.321Z,0
2018-02-27T01:44:06.359Z,0
2018-02-27T01:45:06.304Z,0
2018-02-27T01:46:06.310Z,0
2018-02-27T01:47:06.075Z,0
2018-02-27T01:48:06.078Z,0
2018-02-27T01:49:06.339Z,0
2018-02-27T01:50:06.606Z,0
2018-02-27T01:51:06.375Z,0
2018-02-27T01:52:06.620Z,0
2018-02-27T01:53:06.365Z,0
2018-02-27T01:54:06.375Z,0
2018-02-27T01:55:05.873Z,0
2018-02-27T01:56:06.137Z,0
2018-02-27T01:57:05.886Z,0
2018-02-27T01:58:06.400Z,0
2018-02-27T01:59:06.203Z,0
2018-02-27T02:00:05.904Z,0
2018-02-27T02:01:06.676Z,0
2018-02-27T02:02:06.181Z,0
2018-02-27T02:03:06.436Z,0
2018-02-27T02:04:06.442Z,0
2018-02-27T02:05:06.448Z,0
2018-02-27T02:06:06.465Z,0
2018-02-27T02:07:06.467Z,0
2018-02-27T02:08:05.965Z,0
2018-02-27T02:09:06.475Z,0
2018-02-27T02:10:06.225Z,0
2018-02-27T02:11:06.241Z,0
2018-02-27T02:12:06.492Z,0
2018-02-27T02:13:06.756Z,0
2018-02-27T02:14:05.788Z,0
2018-02-27T02:15:06.769Z,0
2018-02-27T02:16:06.539Z,0
2018-02-27T02:17:06.271Z,0
2018-02-27T02:18:06.532Z,0
2018-02-27T02:19:06.549Z,0
2018-02-27T02:20:06.825Z,0
2018-02-27T02:21:06.551Z,0
2018-02-27T02:22:06.320Z,0
2018-02-27T02:23:06.823Z,0
2018-02-27T02:24:06.843Z,0
2018-02-27T02:25:06.836Z,0
2018-02-27T02:26:06.080Z,0
2018-02-27T02:27:06.591Z,0
2018-02-27T02:28:06.851Z,0
2018-02-27T02:29:06.404Z,0
2018-02-27T02:30:06.108Z,0
2018-02-27T02:31:06.638Z,0
2018-02-27T02:32:06.639Z,0
2018-02-27T02:33:06.965Z,0
2018-02-27T02:34:06.897Z,0
2018-02-27T02:35:06.910Z,0
2018-02-27T02:36:06.402Z,0
2018-02-27T02:37:06.671Z,0
2018-02-27T02:38:06.724Z,0
2018-02-27T02:39:06.936Z,0
2018-02-27T02:40:06.939Z,0
2018-02-27T02:41:06.686Z,0
2018-02-27T02:42:06.939Z,0
2018-02-27T02:43:06.693Z,0
2018-02-27T02:44:07.010Z,0
2018-02-27T02:45:06.715Z,0
2018-02-27T02:46:06.474Z,0
2018-02-27T02:47:06.976Z,0
2018-02-27T02:48:06.222Z,0
2018-02-27T02:49:06.749Z,0
2018-02-27T02:50:06.752Z,0
2018-02-27T02:51:06.522Z,0
2018-02-27T02:52:06.505Z,0
2018-02-27T02:53:06.768Z,0
2018-02-27T02:54:07.027Z,0
2018-02-27T02:55:06.529Z,0
2018-02-27T02:56:06.531Z,0
2018-02-27T02:57:06.800Z,0
2018-02-27T02:58:07.061Z,0
2018-02-27T02:59:06.556Z,0
2018-02-27T03:00:07.080Z,0
2018-02-27T03:01:07.141Z,0
2018-02-27T03:02:06.825Z,0
2018-02-27T03:03:06.834Z,0
2018-02-27T03:04:06.852Z,0
2018-02-27T03:05:07.111Z,0
2018-02-27T03:06:07.107Z,0
2018-02-27T03:07:06.862Z,0
2018-02-27T03:08:07.121Z,0
2018-02-27T03:09:06.616Z,0
2018-02-27T03:10:06.896Z,0
2018-02-27T03:11:06.376Z,0
2018-02-27T03:12:07.144Z,0
2018-02-27T03:13:06.899Z,0
2018-02-27T03:14:06.652Z,0
2018-02-27T03:15:07.182Z,0
2018-02-27T03:16:06.459Z,0
2018-02-27T03:17:06.928Z,0
2018-02-27T03:18:06.932Z,0
2018-02-27T03:19:06.700Z,0
2018-02-27T03:20:07.194Z,0
2018-02-27T03:21:06.742Z,0
2018-02-27T03:22:06.707Z,0
2018-02-27T03:23:07.227Z,0
2018-02-27T03:24:06.724Z,0
2018-02-27T03:25:06.731Z,0
2018-02-27T03:26:06.484Z,0
2018-02-27T03:27:07.244Z,0
2018-02-27T03:28:07.001Z,0
2018-02-27T03:29:06.500Z,0
2018-02-27T03:30:07.021Z,0
2018-02-27T03:31:07.290Z,0
2018-02-27T03:32:06.772Z,0
2018-02-27T03:33:06.806Z,0
2018-02-27T03:34:06.779Z,0
2018-02-27T03:35:07.310Z,0
2018-02-27T03:36:06.844Z,0
2018-02-27T03:37:06.807Z,0
2018-02-27T03:38:06.554Z,0
2018-02-27T03:39:07.076Z,0
2018-02-27T03:40:06.819Z,0
2018-02-27T03:41:06.832Z,0
2018-02-27T03:42:06.845Z,0
2018-02-27T03:43:07.090Z,0
2018-02-27T03:44:07.104Z,0
2018-02-27T03:45:07.109Z,0
2018-02-27T03:46:07.369Z,0
2018-02-27T03:47:06.870Z,0
2018-02-27T03:48:06.873Z,0
2018-02-27T03:49:07.418Z,0
2018-02-27T03:50:07.148Z,0
2018-02-27T03:51:06.949Z,0
2018-02-27T03:52:07.415Z,0
2018-02-27T03:53:06.907Z,0
2018-02-27T03:54:07.169Z,0
2018-02-27T03:55:07.187Z,0
2018-02-27T03:56:07.184Z,0
2018-02-27T03:57:06.934Z,0
2018-02-27T03:58:06.943Z,0
2018-02-27T03:59:06.948Z,0
2018-02-27T04:00:07.222Z,0
2018-02-27T04:01:07.224Z,0
2018-02-27T04:02:07.533Z,0
2018-02-27T04:03:07.492Z,0
2018-02-27T04:04:06.736Z,0
2018-02-27T04:05:06.994Z,0
2018-02-27T04:06:07.294Z,0
2018-02-27T04:07:07.258Z,0
2018-02-27T04:08:07.006Z,0
2018-02-27T04:09:07.521Z,0
2018-02-27T04:10:07.017Z,0
2018-02-27T04:11:07.075Z,0
2018-02-27T04:12:06.783Z,0
2018-02-27T04:13:07.297Z,0
2018-02-27T04:14:07.555Z,0
2018-02-27T04:15:07.325Z,0
2018-02-27T04:16:07.308Z,0
2018-02-27T04:17:06.809Z,0
2018-02-27T04:18:07.318Z,0
2018-02-27T04:19:07.068Z,0
2018-02-27T04:20:07.081Z,0
2018-02-27T04:21:07.426Z,0
2018-02-27T04:22:07.345Z,0
2018-02-27T04:23:07.361Z,0
2018-02-27T04:24:07.650Z,0
2018-02-27T04:25:07.117Z,0
2018-02-27T04:26:07.384Z,0
2018-02-27T04:27:06.876Z,0
2018-02-27T04:28:06.881Z,0
2018-02-27T04:29:07.659Z,0
2018-02-27T04:30:06.910Z,0
2018-02-27T04:31:07.670Z,0
2018-02-27T04:32:07.682Z,0
2018-02-27T04:33:07.677Z,0
2018-02-27T04:34:07.176Z,0
2018-02-27T04:35:07.179Z,0
2018-02-27T04:36:07.523Z,0
2018-02-27T04:37:07.455Z,0
2018-02-27T04:38:07.200Z,0
2018-02-27T04:39:07.211Z,0
2018-02-27T04:40:06.964Z,0
2018-02-27T04:41:07.476Z,0
2018-02-27T04:42:07.242Z,0
2018-02-27T04:43:07.747Z,0
2018-02-27T04:44:07.743Z,0
2018-02-27T04:45:07.753Z,0
2018-02-27T04:46:07.252Z,0
2018-02-27T04:47:07.513Z,0
2018-02-27T04:48:07.518Z,0
2018-02-27T04:49:07.783Z,0
2018-02-27T04:50:07.278Z,0
2018-02-27T04:51:07.545Z,0
2018-02-27T04:52:07.550Z,0
2018-02-27T04:53:07.297Z,0
2018-02-27T04:54:07.612Z,0
2018-02-27T04:55:07.580Z,0
2018-02-27T04:56:07.930Z,0
2018-02-27T04:57:07.580Z,0
2018-02-27T04:58:07.330Z,0
2018-02-27T04:59:07.076Z,0
2018-02-27T05:00:07.620Z,0
2018-02-27T05:01:07.615Z,0
2018-02-27T05:02:07.356Z,0
2018-02-27T05:03:07.426Z,0
2018-02-27T05:04:07.367Z,0
2018-02-27T05:05:07.626Z,0
2018-02-27T05:06:07.379Z,0
2018-02-27T05:07:07.676Z,0
2018-02-27T05:08:07.649Z,0
2018-02-27T05:09:07.954Z,0
2018-02-27T05:10:07.417Z,0
2018-02-27T05:11:07.414Z,0
2018-02-27T05:12:07.427Z,0
2018-02-27T05:13:07.424Z,0
2018-02-27T05:14:07.690Z,0
2018-02-27T05:15:07.465Z,0
2018-02-27T05:16:07.967Z,0
2018-02-27T05:17:07.967Z,0
2018-02-27T05:18:07.726Z,0
2018-02-27T05:19:07.718Z,0
2018-02-27T05:20:07.750Z,0
2018-02-27T05:21:07.479Z,0
2018-02-27T05:22:07.486Z,0
2018-02-27T05:23:07.801Z,0
2018-02-27T05:24:07.546Z,0
2018-02-27T05:25:07.760Z,0
2018-02-27T05:26:08.028Z,0
2018-02-27T05:27:07.523Z,0
2018-02-27T05:28:07.539Z,0
2018-02-27T05:29:07.788Z,0
2018-02-27T05:30:07.282Z,0
2018-02-27T05:31:07.550Z,0
2018-02-27T05:32:07.545Z,0
2018-02-27T05:33:07.811Z,0
2018-02-27T05:34:07.878Z,0
2018-02-27T05:35:07.570Z,0
2018-02-27T05:36:08.089Z,0
2018-02-27T05:37:07.844Z,0
2018-02-27T05:38:07.849Z,0
2018-02-27T05:39:07.901Z,0
2018-02-27T05:40:07.606Z,0
2018-02-27T05:41:07.856Z,0
2018-02-27T05:42:07.934Z,0
2018-02-27T05:43:08.162Z,0
2018-02-27T05:44:07.899Z,0
2018-02-27T05:45:07.647Z,0
2018-02-27T05:46:08.162Z,0
2018-02-27T05:47:07.908Z,0
2018-02-27T05:48:07.910Z,0
2018-02-27T05:49:07.912Z,0
2018-02-27T05:50:07.671Z,0
2018-02-27T05:51:08.186Z,0
2018-02-27T05:52:07.680Z,0
2018-02-27T05:53:08.196Z,0
2018-02-27T05:54:07.995Z,0
2018-02-27T05:55:08.214Z,0
2018-02-27T05:56:07.712Z,0
2018-02-27T05:57:07.710Z,0
2018-02-27T05:58:07.465Z,5
2018-02-27T05:59:07.978Z,5
2018-02-27T06:00:07.999Z,5
2018-02-27T06:01:08.262Z,5
2018-02-27T06:02:07.745Z,5
2018-02-27T06:03:08.261Z,5
2018-02-27T06:04:08.283Z,5
2018-02-27T06:05:07.508Z,5
2018-02-27T06:06:07.781Z,10
2018-02-27T06:07:08.288Z,10
2018-02-27T06:08:08.348Z,10
2018-02-27T06:09:08.196Z,10
2018-02-27T06:10:08.307Z,10
2018-02-27T06:11:08.085Z,15
2018-02-27T06:12:07.558Z,15
2018-02-27T06:13:08.470Z,15
2018-02-27T06:14:07.820Z,15
2018-02-27T06:15:08.337Z,15
2018-02-27T06:16:07.853Z,20
2018-02-27T06:17:08.353Z,20
2018-02-27T06:18:08.359Z,20
2018-02-27T06:19:08.365Z,20
2018-02-27T06:20:07.863Z,25
2018-02-27T06:21:07.870Z,25
2018-02-27T06:22:07.870Z,25
2018-02-27T06:23:08.133Z,25
2018-02-27T06:24:08.455Z,30
2018-02-27T06:25:07.641Z,30
2018-02-27T06:26:07.900Z,35
2018-02-27T06:27:08.438Z,35
2018-02-27T06:28:07.660Z,35
2018-02-27T06:29:07.915Z,40
2018-02-27T06:30:07.952Z,40
2018-02-27T06:31:08.469Z,45
2018-02-27T06:32:07.950Z,45
2018-02-27T06:33:07.945Z,50
2018-02-27T06:34:07.705Z,50
2018-02-27T06:35:08.214Z,50
2018-02-27T06:36:08.222Z,55
2018-02-27T06:37:08.232Z,55
2018-02-27T06:38:07.983Z,60
2018-02-27T06:39:08.285Z,60
2018-02-27T06:40:07.986Z,60
2018-02-27T06:41:08.524Z,60
2018-02-27T06:42:08.520Z,65
2018-02-27T06:43:08.526Z,65
2018-02-27T06:44:08.326Z,70
2018-02-27T06:45:08.275Z,70
2018-02-27T06:46:08.032Z,75
2018-02-27T06:47:08.174Z,80
2018-02-27T06:48:08.557Z,80
2018-02-27T06:49:07.790Z,85
2018-02-27T06:50:08.592Z,85
2018-02-27T06:51:07.817Z,90
2018-02-27T06:52:08.595Z,90
2018-02-27T06:53:08.329Z,95
2018-02-27T06:54:08.392Z,95
2018-02-27T06:55:08.344Z,100
2018-02-27T06:56:08.348Z,100
2018-02-27T06:57:08.619Z,100
2018-02-27T06:58:08.364Z,105
2018-02-27T06:59:08.636Z,105
2018-02-27T07:00:08.653Z,105
2018-02-27T07:01:08.380Z,110
2018-02-27T07:02:08.139Z,110
2018-02-27T07:03:08.132Z,115
2018-02-27T07:04:08.652Z,115
2018-02-27T07:05:08.666Z,115
2018-02-27T07:06:08.417Z,120
2018-02-27T07:07:08.178Z,120
2018-02-27T07:08:08.433Z,120
2018-02-27T07:09:08.484Z,125
2018-02-27T07:10:07.934Z,125
2018-02-27T07:11:08.192Z,130
2018-02-27T07:12:08.713Z,130
2018-02-27T07:13:07.950Z,135
2018-02-27T07:14:08.470Z,135
2018-02-27T07:15:08.474Z,135
2018-02-27T07:16:08.736Z,135
2018-02-27T07:17:08.547Z,140
2018-02-27T07:18:08.755Z,140
2018-02-27T07:19:08.045Z,140
2018-02-27T07:20:08.517Z,145
2018-02-27T07:21:07.993Z,145
2018-02-27T07:22:08.258Z,145
2018-02-27T07:23:08.513Z,150
2018-02-27T07:24:08.834Z,150
2018-02-27T07:25:08.535Z,150
2018-02-27T07:26:08.550Z,155
2018-02-27T07:27:08.806Z,155
2018-02-27T07:28:08.317Z,155
2018-02-27T07:29:08.334Z,155
2018-02-27T07:30:08.380Z,155
2018-02-27T07:31:08.583Z,155
2018-02-27T07:32:08.588Z,160
2018-02-27T07:33:08.596Z,160
2018-02-27T07:34:08.901Z,165
2018-02-27T07:35:08.621Z,165
2018-02-27T07:36:08.361Z,165
2018-02-27T07:37:08.888Z,170
2018-02-27T07:38:08.636Z,170
2018-02-27T07:39:08.953Z,170
2018-02-27T07:40:08.142Z,170
2018-02-27T07:41:08.400Z,175
2018-02-27T07:42:08.148Z,180
2018-02-27T07:43:08.661Z,180
2018-02-27T07:44:08.415Z,180
2018-02-27T07:45:08.183Z,185
2018-02-27T07:46:08.682Z,185
2018-02-27T07:47:08.444Z,185
2018-02-27T07:48:08.443Z,185
2018-02-27T07:49:08.705Z,190
2018-02-27T07:50:08.714Z,190
2018-02-27T07:51:08.973Z,190
2018-02-27T07:52:08.976Z,190
2018-02-27T07:53:08.747Z,190
2018-02-27T07:54:08.787Z,195
2018-02-27T07:55:09.006Z,195
2018-02-27T07:56:09.021Z,195
2018-02-27T07:57:08.762Z,195
2018-02-27T07:58:09.081Z,200
2018-02-27T07:59:08.776Z,200
2018-02-27T08:00:08.533Z,200
2018-02-27T08:01:08.537Z,195
2018-02-27T08:02:08.822Z,200
2018-02-27T08:03:08.806Z,205
2018-02-27T08:04:08.803Z,200
2018-02-27T08:05:08.824Z,200
2018-02-27T08:06:08.574Z,195
2018-02-27T08:07:08.332Z,195
2018-02-27T08:08:09.101Z,190
2018-02-27T08:09:08.650Z,185
2018-02-27T08:10:09.253Z,185
2018-02-27T08:11:09.137Z,185
2018-02-27T08:12:08.629Z,190
2018-02-27T08:13:09.141Z,195
2018-02-27T08:14:08.901Z,200
2018-02-27T08:15:08.913Z,205
2018-02-27T08:16:08.399Z,215
2018-02-27T08:17:08.658Z,215
2018-02-27T08:18:08.921Z,225
2018-02-27T08:19:09.177Z,230
2018-02-27T08:20:08.686Z,235
2018-02-27T08:21:08.689Z,240
2018-02-27T08:22:08.701Z,245
2018-02-27T08:23:09.206Z,250
2018-02-27T08:24:09.018Z,260
2018-02-27T08:25:09.229Z,265
2018-02-27T08:26:08.992Z,265
2018-02-27T08:27:09.244Z,275
2018-02-27T08:28:08.741Z,275
2018-02-27T08:29:09.260Z,280
2018-02-27T08:30:09.279Z,285
2018-02-27T08:31:08.766Z,295
2018-02-27T08:32:09.052Z,300
2018-02-27T08:33:09.040Z,310
2018-02-27T08:34:08.791Z,315
2018-02-27T08:35:09.059Z,320
2018-02-27T08:36:09.314Z,325
2018-02-27T08:37:09.329Z,330
2018-02-27T08:38:09.336Z,330
2018-02-27T08:39:09.143Z,330
2018-02-27T08:40:09.103Z,335
2018-02-27T08:41:09.100Z,340
2018-02-27T08:42:09.382Z,345
2018-02-27T08:43:09.384Z,350
2018-02-27T08:44:09.388Z,355
2018-02-27T08:45:09.143Z,330
2018-02-27T08:46:09.148Z,355
2018-02-27T08:47:09.177Z,360
2018-02-27T08:48:08.925Z,355
2018-02-27T08:49:08.409Z,355
2018-02-27T08:50:08.676Z,345
2018-02-27T08:51:09.200Z,345
2018-02-27T08:52:08.944Z,345
2018-02-27T08:53:09.471Z,340
2018-02-27T08:54:09.623Z,335
2018-02-27T08:55:09.478Z,335
2018-02-27T08:56:09.534Z,335
2018-02-27T08:57:08.988Z,335
2018-02-27T08:58:09.001Z,335
2018-02-27T08:59:08.751Z,330
2018-02-27T09:00:09.530Z,325
2018-02-27T09:01:09.293Z,320
2018-02-27T09:02:09.290Z,320
2018-02-27T09:03:09.559Z,325
2018-02-27T09:04:09.306Z,345
2018-02-27T09:05:09.316Z,345
2018-02-27T09:06:09.572Z,345
2018-02-27T09:07:09.330Z,350
2018-02-27T09:08:09.479Z,350
2018-02-27T09:09:08.889Z,360
2018-02-27T09:10:09.355Z,360
2018-02-27T09:11:09.621Z,365
2018-02-27T09:12:09.121Z,365
2018-02-27T09:13:09.585Z,375
2018-02-27T09:14:09.140Z,375
2018-02-27T09:15:09.409Z,380
2018-02-27T09:16:09.412Z,365
2018-02-27T09:17:09.428Z,370
2018-02-27T09:18:09.427Z,375
2018-02-27T09:19:09.736Z,380
2018-02-27T09:20:09.462Z,390
2018-02-27T09:21:09.464Z,405
2018-02-27T09:22:09.732Z,410
2018-02-27T09:23:09.482Z,425
2018-02-27T09:24:09.293Z,430
2018-02-27T09:25:09.264Z,440
2018-02-27T09:26:09.767Z,440
2018-02-27T09:27:09.542Z,440
2018-02-27T09:28:09.794Z,415
2018-02-27T09:29:09.602Z,450
2018-02-27T09:30:09.301Z,450
2018-02-27T09:31:09.829Z,430
2018-02-27T09:32:09.571Z,405
2018-02-27T09:33:09.326Z,430
2018-02-27T09:34:09.349Z,450
2018-02-27T09:35:09.696Z,460
2018-02-27T09:36:09.105Z,475
2018-02-27T09:37:08.875Z,490
2018-02-27T09:38:09.746Z,495
2018-02-27T09:39:09.948Z,500
2018-02-27T09:40:09.408Z,505
2018-02-27T09:41:09.923Z,510
2018-02-27T09:42:09.687Z,515
2018-02-27T09:43:09.688Z,505
2018-02-27T09:44:09.196Z,500
2018-02-27T09:45:09.723Z,500
2018-02-27T09:46:09.722Z,500
2018-02-27T09:47:09.487Z,490
2018-02-27T09:48:09.514Z,470
2018-02-27T09:49:09.505Z,480
2018-02-27T09:50:09.777Z,480
2018-02-27T09:51:09.783Z,475
2018-02-27T09:52:09.574Z,465
2018-02-27T09:53:09.296Z,470
2018-02-27T09:54:10.070Z,465
2018-02-27T09:55:09.369Z,475
2018-02-27T09:56:09.584Z,475
2018-02-27T09:57:09.595Z,435
2018-02-27T09:58:10.030Z,425
2018-02-27T09:59:09.881Z,475
2018-02-27T10:00:09.637Z,505
2018-02-27T10:01:09.899Z,530
2018-02-27T10:02:10.163Z,530
2018-02-27T10:03:09.923Z,535
2018-02-27T10:04:10.232Z,530
2018-02-27T10:05:09.684Z,520
2018-02-27T10:06:10.222Z,515
2018-02-27T10:07:09.706Z,520
2018-02-27T10:08:09.973Z,530
2018-02-27T10:09:09.986Z,545
2018-02-27T10:10:10.044Z,550
2018-02-27T10:11:09.817Z,560
2018-02-27T10:12:09.762Z,540
2018-02-27T10:13:09.785Z,560
2018-02-27T10:14:10.043Z,565
2018-02-27T10:15:10.303Z,560
2018-02-27T10:16:10.064Z,535
2018-02-27T10:17:09.891Z,555
2018-02-27T10:18:09.862Z,565
2018-02-27T10:19:10.104Z,575
2018-02-27T10:20:09.857Z,595
2018-02-27T10:21:09.876Z,600
2018-02-27T10:22:10.394Z,605
2018-02-27T10:23:10.406Z,610
2018-02-27T10:24:10.165Z,610
2018-02-27T10:25:10.222Z,625
2018-02-27T10:26:10.434Z,635
2018-02-27T10:27:09.939Z,665
2018-02-27T10:28:10.207Z,775
2018-02-27T10:29:10.224Z,875
2018-02-27T10:30:10.490Z,965
2018-02-27T10:31:10.494Z,1115
2018-02-27T10:32:10.261Z,1155
2018-02-27T10:33:10.527Z,1190
2018-02-27T10:34:10.283Z,600
2018-02-27T10:35:10.550Z,690
2018-02-27T10:36:10.113Z,785
2018-02-27T10:37:10.086Z,550
2018-02-27T10:38:10.600Z,505
2018-02-27T10:39:10.354Z,475
2018-02-27T10:40:10.160Z,470
2018-02-27T10:41:10.635Z,770
2018-02-27T10:42:10.142Z,1070
2018-02-27T10:43:10.149Z,585
2018-02-27T10:44:10.682Z,540
2018-02-27T10:45:10.787Z,625
2018-02-27T10:46:10.197Z,1120
2018-02-27T10:47:10.460Z,1075
2018-02-27T10:48:10.218Z,1100
2018-02-27T10:49:10.485Z,1130
2018-02-27T10:50:09.989Z,1135
2018-02-27T10:51:10.519Z,1110
2018-02-27T10:52:10.279Z,1075
2018-02-27T10:53:10.286Z,1080
2018-02-27T10:54:10.570Z,1145
2018-02-27T10:55:10.373Z,1155
2018-02-27T10:56:10.599Z,1180
2018-02-27T10:57:10.396Z,1280
2018-02-27T10:58:10.903Z,1400
2018-02-27T10:59:10.384Z,1410
2018-02-27T11:00:10.406Z,1370
2018-02-27T11:01:10.662Z,1295
2018-02-27T11:02:10.751Z,1170
2018-02-27T11:03:10.700Z,695
2018-02-27T11:04:10.710Z,660
2018-02-27T11:05:10.730Z,725
2018-02-27T11:06:11.016Z,945
2018-02-27T11:07:10.751Z,900
2018-02-27T11:08:11.024Z,995
2018-02-27T11:09:10.534Z,980
2018-02-27T11:10:11.107Z,920
2018-02-27T11:11:11.079Z,585
2018-02-27T11:12:11.091Z,550
2018-02-27T11:13:11.111Z,520
2018-02-27T11:14:11.254Z,525
2018-02-27T11:15:11.142Z,565
2018-02-27T11:16:11.174Z,800
2018-02-27T11:17:10.911Z,765
2018-02-27T11:18:11.196Z,525
2018-02-27T11:19:10.951Z,505
2018-02-27T11:20:11.016Z,490
2018-02-27T11:21:10.726Z,485
2018-02-27T11:22:10.739Z,500
2018-02-27T11:23:10.748Z,485
2018-02-27T11:24:11.026Z,445
2018-02-27T11:25:10.851Z,420
2018-02-27T11:26:11.054Z,395
2018-02-27T11:27:11.073Z,375
2018-02-27T11:28:11.109Z,365
2018-02-27T11:29:10.841Z,365
2018-02-27T11:30:10.865Z,360
2018-02-27T11:31:11.404Z,365
2018-02-27T11:32:11.146Z,370
2018-02-27T11:33:10.904Z,365
2018-02-27T11:34:11.166Z,370
2018-02-27T11:35:10.927Z,375
2018-02-27T11:36:11.192Z,390
2018-02-27T11:37:11.202Z,410
2018-02-27T11:38:11.222Z,485
2018-02-27T11:39:11.230Z,440
2018-02-27T11:40:11.296Z,480
2018-02-27T11:41:11.255Z,425
2018-02-27T11:42:11.317Z,405
2018-02-27T11:43:11.546Z,395
2018-02-27T11:44:11.317Z,405
2018-02-27T11:45:10.596Z,420
2018-02-27T11:46:11.071Z,505
2018-02-27T11:47:11.329Z,480
2018-02-27T11:48:11.359Z,500
2018-02-27T11:49:11.097Z,510
2018-02-27T11:50:11.380Z,525
2018-02-27T11:51:10.873Z,550
2018-02-27T11:52:11.394Z,1070
2018-02-27T11:53:11.663Z,750
2018-02-27T11:54:11.444Z,565
2018-02-27T11:55:11.486Z,690
2018-02-27T11:56:11.697Z,675
2018-02-27T11:57:11.458Z,665
2018-02-27T11:58:11.727Z,1010
2018-02-27T11:59:11.745Z,825
2018-02-27T12:00:11.806Z,620
2018-02-27T12:01:11.767Z,765
2018-02-27T12:02:11.558Z,565
2018-02-27T12:03:11.538Z,560
2018-02-27T12:04:11.298Z,565
2018-02-27T12:05:11.826Z,675
2018-02-27T12:06:11.326Z,965
2018-02-27T12:07:11.860Z,620
2018-02-27T12:08:11.889Z,510
2018-02-27T12:09:11.643Z,490
2018-02-27T12:10:11.425Z,475
2018-02-27T12:11:11.419Z,470
2018-02-27T12:12:11.921Z,470
2018-02-27T12:13:11.940Z,465
2018-02-27T12:14:11.938Z,460
2018-02-27T12:15:11.474Z,450
2018-02-27T12:16:12.173Z,450
2018-02-27T12:17:11.984Z,460
2018-02-27T12:18:11.744Z,455
2018-02-27T12:19:12.016Z,450
2018-02-27T12:20:11.613Z,445
2018-02-27T12:21:12.034Z,440
2018-02-27T12:22:11.793Z,440
2018-02-27T12:23:12.072Z,450
2018-02-27T12:24:11.823Z,445
2018-02-27T12:25:11.631Z,455
2018-02-27T12:26:11.852Z,445
2018-02-27T12:27:12.111Z,440
2018-02-27T12:28:11.619Z,445
2018-02-27T12:29:11.882Z,460
2018-02-27T12:30:12.205Z,470
2018-02-27T12:31:11.657Z,485
2018-02-27T12:32:12.180Z,490
2018-02-27T12:33:11.691Z,490
2018-02-27T12:34:11.950Z,480
2018-02-27T12:35:11.709Z,460
2018-02-27T12:36:11.970Z,440
2018-02-27T12:37:11.738Z,450
2018-02-27T12:38:11.990Z,475
2018-02-27T12:39:12.334Z,500
2018-02-27T12:40:12.084Z,535
2018-02-27T12:41:12.031Z,610
2018-02-27T12:42:12.048Z,895
2018-02-27T12:43:11.803Z,625
2018-02-27T12:44:12.078Z,525
2018-02-27T12:45:12.086Z,500
2018-02-27T12:46:11.842Z,495
2018-02-27T12:47:12.458Z,490
2018-02-27T12:48:12.384Z,500
2018-02-27T12:49:12.142Z,510
2018-02-27T12:50:11.953Z,525
2018-02-27T12:51:11.907Z,535
2018-02-27T12:52:12.183Z,590
2018-02-27T12:53:11.704Z,545
2018-02-27T12:54:11.967Z,545
2018-02-27T12:55:12.009Z,550
2018-02-27T12:56:11.980Z,550
2018-02-27T12:57:12.239Z,545
2018-02-27T12:58:12.526Z,545
2018-02-27T12:59:12.526Z,525
2018-02-27T13:00:12.285Z,490
2018-02-27T13:01:12.033Z,465
2018-02-27T13:02:12.304Z,450
2018-02-27T13:03:12.318Z,455
2018-02-27T13:04:12.332Z,460
2018-02-27T13:05:12.093Z,460
2018-02-27T13:06:12.355Z,475
2018-02-27T13:07:12.370Z,495
2018-02-27T13:08:12.382Z,885
2018-02-27T13:09:12.647Z,835
2018-02-27T13:10:12.215Z,635
2018-02-27T13:11:11.912Z,575
2018-02-27T13:12:12.428Z,605
2018-02-27T13:13:12.192Z,1115
2018-02-27T13:14:12.206Z,590
2018-02-27T13:15:11.960Z,545
2018-02-27T13:16:12.488Z,550
2018-02-27T13:17:12.757Z,550
2018-02-27T13:18:12.257Z,540
2018-02-27T13:19:12.806Z,535
2018-02-27T13:20:12.544Z,525
2018-02-27T13:21:12.545Z,510
2018-02-27T13:22:12.565Z,500
2018-02-27T13:23:12.868Z,490
2018-02-27T13:24:12.335Z,490
2018-02-27T13:25:12.655Z,455
2018-02-27T13:26:12.492Z,430
2018-02-27T13:27:12.620Z,425
2018-02-27T13:28:12.643Z,425
2018-02-27T13:29:12.906Z,440
2018-02-27T13:30:12.663Z,455
2018-02-27T13:31:12.704Z,465
2018-02-27T13:32:12.434Z,480
2018-02-27T13:33:12.725Z,495
2018-02-27T13:34:12.721Z,510
2018-02-27T13:35:12.483Z,880
2018-02-27T13:36:12.290Z,1130
2018-02-27T13:37:12.499Z,810
2018-02-27T13:38:12.516Z,505
2018-02-27T13:39:12.780Z,505
2018-02-27T13:40:12.840Z,505
2018-02-27T13:41:12.550Z,480
2018-02-27T13:42:12.817Z,450
2018-02-27T13:43:12.582Z,430
2018-02-27T13:44:12.846Z,420
2018-02-27T13:45:13.116Z,420
2018-02-27T13:46:12.359Z,435
2018-02-27T13:47:13.136Z,455
2018-02-27T13:48:12.895Z,490
2018-02-27T13:49:13.887Z,965
2018-02-27T13:50:12.918Z,950
2018-02-27T13:51:12.789Z,885
2018-02-27T13:52:13.151Z,460
2018-02-27T13:53:13.223Z,420
2018-02-27T13:54:12.727Z,420
2018-02-27T13:55:12.531Z,430
2018-02-27T13:56:12.746Z,700
2018-02-27T13:57:12.501Z,365
2018-02-27T13:58:12.520Z,340
2018-02-27T13:59:13.291Z,300
2018-02-27T14:00:12.800Z,265
2018-02-27T14:01:13.321Z,255
2018-02-27T14:02:13.328Z,255
2018-02-27T14:03:13.347Z,260
2018-02-27T14:04:13.104Z,270
2018-02-27T14:05:12.857Z,285
2018-02-27T14:06:13.122Z,295
2018-02-27T14:07:13.138Z,305
2018-02-27T14:08:13.165Z,335
2018-02-27T14:09:12.918Z,370
2018-02-27T14:10:12.722Z,410
2018-02-27T14:11:13.444Z,525
2018-02-27T14:12:13.195Z,925